sensor_id;sensor_type;location;lat;lon;timestamp;temperature;humidity
69895;DHT22;57172;52.034;5.090;2022-07-29T00:02:26;18.30;56.00
69895;DHT22;57172;52.034;5.090;2022-07-29T00:04:53;18.30;55.90
69895;DHT22;57172;52.034;5.090;2022-07-29T00:07:20;18.20;56.00
69895;DHT22;57172;52.034;5.090;2022-07-29T00:09:47;18.20;56.10
69895;DHT22;57172;52.034;5.090;2022-07-29T00:12:20;18.20;56.10
69895;DHT22;57172;52.034;5.090;2022-07-29T00:14:56;18.20;56.30
69895;DHT22;57172;52.034;5.090;2022-07-29T00:17:23;18.10;56.30
69895;DHT22;57172;52.034;5.090;2022-07-29T00:19:50;18.10;56.50
69895;DHT22;57172;52.034;5.090;2022-07-29T00:22:18;18.00;56.70
69895;DHT22;57172;52.034;5.090;2022-07-29T00:24:47;17.90;56.80
69895;DHT22;57172;52.034;5.090;2022-07-29T00:27:14;17.90;56.80
69895;DHT22;57172;52.034;5.090;2022-07-29T00:29:40;17.90;56.80
69895;DHT22;57172;52.034;5.090;2022-07-29T00:32:07;17.90;56.90
69895;DHT22;57172;52.034;5.090;2022-07-29T00:34:34;17.90;57.00
69895;DHT22;57172;52.034;5.090;2022-07-29T00:37:19;17.90;57.10
69895;DHT22;57172;52.034;5.090;2022-07-29T00:39:47;17.80;57.20
69895;DHT22;57172;52.034;5.090;2022-07-29T00:42:13;17.80;57.30
69895;DHT22;57172;52.034;5.090;2022-07-29T00:44:41;17.80;57.30
69895;DHT22;57172;52.034;5.090;2022-07-29T00:47:09;17.80;57.20
69895;DHT22;57172;52.034;5.090;2022-07-29T00:49:36;17.80;57.30
69895;DHT22;57172;52.034;5.090;2022-07-29T00:52:05;17.70;57.60
69895;DHT22;57172;52.034;5.090;2022-07-29T00:54:34;17.70;57.60
69895;DHT22;57172;52.034;5.090;2022-07-29T00:57:03;17.60;57.90
69895;DHT22;57172;52.034;5.090;2022-07-29T00:59:32;17.60;57.90
69895;DHT22;57172;52.034;5.090;2022-07-29T01:02:04;17.50;58.00
69895;DHT22;57172;52.034;5.090;2022-07-29T01:04:31;17.50;58.00
69895;DHT22;57172;52.034;5.090;2022-07-29T01:07:00;17.50;58.00
69895;DHT22;57172;52.034;5.090;2022-07-29T01:09:27;17.50;58.00
69895;DHT22;57172;52.034;5.090;2022-07-29T01:12:21;17.50;58.00
69895;DHT22;57172;52.034;5.090;2022-07-29T01:14:48;17.50;58.10
69895;DHT22;57172;52.034;5.090;2022-07-29T01:17:44;17.50;58.20
69895;DHT22;57172;52.034;5.090;2022-07-29T01:20:31;17.50;58.20
69895;DHT22;57172;52.034;5.090;2022-07-29T01:31:18;17.50;58.30
69895;DHT22;57172;52.034;5.090;2022-07-29T01:33:58;17.50;58.40
69895;DHT22;57172;52.034;5.090;2022-07-29T01:36:32;17.50;58.50
69895;DHT22;57172;52.034;5.090;2022-07-29T01:39:06;17.50;58.50
69895;DHT22;57172;52.034;5.090;2022-07-29T01:41:38;17.50;58.50
69895;DHT22;57172;52.034;5.090;2022-07-29T01:44:15;17.50;58.60
69895;DHT22;57172;52.034;5.090;2022-07-29T01:46:51;17.40;58.60
69895;DHT22;57172;52.034;5.090;2022-07-29T01:49:23;17.40;58.70
69895;DHT22;57172;52.034;5.090;2022-07-29T01:52:07;17.40;58.70
69895;DHT22;57172;52.034;5.090;2022-07-29T01:54:43;17.40;58.90
69895;DHT22;57172;52.034;5.090;2022-07-29T01:57:14;17.30;58.80
69895;DHT22;57172;52.034;5.090;2022-07-29T01:59:45;17.30;59.00
69895;DHT22;57172;52.034;5.090;2022-07-29T02:02:15;17.30;58.90
69895;DHT22;57172;52.034;5.090;2022-07-29T02:04:44;17.30;59.00
69895;DHT22;57172;52.034;5.090;2022-07-29T02:07:22;17.30;59.00
69895;DHT22;57172;52.034;5.090;2022-07-29T02:09:50;17.30;59.00
69895;DHT22;57172;52.034;5.090;2022-07-29T02:12:19;17.30;58.90
69895;DHT22;57172;52.034;5.090;2022-07-29T02:14:50;17.30;59.00
69895;DHT22;57172;52.034;5.090;2022-07-29T02:17:27;17.30;59.10
69895;DHT22;57172;52.034;5.090;2022-07-29T02:19:58;17.40;58.90
69895;DHT22;57172;52.034;5.090;2022-07-29T02:22:28;17.30;59.00
69895;DHT22;57172;52.034;5.090;2022-07-29T02:24:57;17.30;59.00
69895;DHT22;57172;52.034;5.090;2022-07-29T02:27:27;17.30;59.00
69895;DHT22;57172;52.034;5.090;2022-07-29T02:29:57;17.30;58.90
69895;DHT22;57172;52.034;5.090;2022-07-29T02:32:26;17.30;59.00
69895;DHT22;57172;52.034;5.090;2022-07-29T02:34:54;17.30;58.90
69895;DHT22;57172;52.034;5.090;2022-07-29T02:37:23;17.30;59.10
69895;DHT22;57172;52.034;5.090;2022-07-29T02:39:53;17.20;59.20
69895;DHT22;57172;52.034;5.090;2022-07-29T02:42:21;17.20;59.30
69895;DHT22;57172;52.034;5.090;2022-07-29T02:44:49;17.20;59.40
69895;DHT22;57172;52.034;5.090;2022-07-29T02:47:23;17.20;59.40
69895;DHT22;57172;52.034;5.090;2022-07-29T02:49:57;17.20;59.50
69895;DHT22;57172;52.034;5.090;2022-07-29T02:55:00;17.20;59.50
69895;DHT22;57172;52.034;5.090;2022-07-29T02:57:40;17.20;59.50
69895;DHT22;57172;52.034;5.090;2022-07-29T03:00:29;17.20;59.60
69895;DHT22;57172;52.034;5.090;2022-07-29T03:02:59;17.20;59.50
69895;DHT22;57172;52.034;5.090;2022-07-29T03:05:31;17.10;59.60
69895;DHT22;57172;52.034;5.090;2022-07-29T03:08:04;17.20;59.60
69895;DHT22;57172;52.034;5.090;2022-07-29T03:10:31;17.20;59.60
69895;DHT22;57172;52.034;5.090;2022-07-29T03:12:59;17.20;59.50
69895;DHT22;57172;52.034;5.090;2022-07-29T03:15:27;17.10;59.50
69895;DHT22;57172;52.034;5.090;2022-07-29T03:17:54;17.10;59.50
69895;DHT22;57172;52.034;5.090;2022-07-29T03:20:22;17.10;59.50
69895;DHT22;57172;52.034;5.090;2022-07-29T03:22:49;17.10;59.60
69895;DHT22;57172;52.034;5.090;2022-07-29T03:25:18;17.20;59.50
69895;DHT22;57172;52.034;5.090;2022-07-29T03:27:46;17.10;59.50
69895;DHT22;57172;52.034;5.090;2022-07-29T03:30:13;17.10;59.50
69895;DHT22;57172;52.034;5.090;2022-07-29T03:32:48;17.10;59.60
69895;DHT22;57172;52.034;5.090;2022-07-29T03:35:18;17.10;59.50
69895;DHT22;57172;52.034;5.090;2022-07-29T03:37:46;17.10;59.50
69895;DHT22;57172;52.034;5.090;2022-07-29T03:40:22;17.10;59.60
69895;DHT22;57172;52.034;5.090;2022-07-29T03:42:51;17.10;59.60
69895;DHT22;57172;52.034;5.090;2022-07-29T03:45:20;17.10;59.50
69895;DHT22;57172;52.034;5.090;2022-07-29T03:47:52;17.10;59.50
69895;DHT22;57172;52.034;5.090;2022-07-29T03:50:27;17.10;59.50
69895;DHT22;57172;52.034;5.090;2022-07-29T03:52:55;17.00;59.60
69895;DHT22;57172;52.034;5.090;2022-07-29T03:55:22;17.00;59.50
69895;DHT22;57172;52.034;5.090;2022-07-29T03:57:49;17.00;59.50
69895;DHT22;57172;52.034;5.090;2022-07-29T04:00:17;17.00;59.60
69895;DHT22;57172;52.034;5.090;2022-07-29T04:02:44;17.00;59.60
69895;DHT22;57172;52.034;5.090;2022-07-29T04:05:15;17.00;59.60
69895;DHT22;57172;52.034;5.090;2022-07-29T04:07:46;17.00;59.70
69895;DHT22;57172;52.034;5.090;2022-07-29T04:10:13;16.90;59.70
69895;DHT22;57172;52.034;5.090;2022-07-29T04:12:42;16.90;59.70
69895;DHT22;57172;52.034;5.090;2022-07-29T04:15:10;16.90;59.70
69895;DHT22;57172;52.034;5.090;2022-07-29T04:17:37;16.90;59.80
69895;DHT22;57172;52.034;5.090;2022-07-29T04:20:04;17.00;59.70
69895;DHT22;57172;52.034;5.090;2022-07-29T04:22:31;16.90;59.70
69895;DHT22;57172;52.034;5.090;2022-07-29T04:24:58;16.90;59.70
69895;DHT22;57172;52.034;5.090;2022-07-29T04:27:29;16.90;59.80
69895;DHT22;57172;52.034;5.090;2022-07-29T04:29:56;16.90;59.80
69895;DHT22;57172;52.034;5.090;2022-07-29T04:32:24;16.90;59.80
69895;DHT22;57172;52.034;5.090;2022-07-29T04:34:51;16.90;59.90
69895;DHT22;57172;52.034;5.090;2022-07-29T04:37:19;16.90;59.90
69895;DHT22;57172;52.034;5.090;2022-07-29T04:39:45;16.90;60.00
69895;DHT22;57172;52.034;5.090;2022-07-29T04:42:12;16.90;59.90
69895;DHT22;57172;52.034;5.090;2022-07-29T04:44:39;17.00;60.00
69895;DHT22;57172;52.034;5.090;2022-07-29T04:47:09;17.00;59.90
69895;DHT22;57172;52.034;5.090;2022-07-29T04:49:39;17.10;59.80
69895;DHT22;57172;52.034;5.090;2022-07-29T04:52:06;17.10;59.80
69895;DHT22;57172;52.034;5.090;2022-07-29T04:54:33;17.20;59.80
69895;DHT22;57172;52.034;5.090;2022-07-29T04:57:00;17.20;59.60
69895;DHT22;57172;52.034;5.090;2022-07-29T04:59:27;17.30;59.50
69895;DHT22;57172;52.034;5.090;2022-07-29T05:01:53;17.30;59.50
69895;DHT22;57172;52.034;5.090;2022-07-29T05:04:20;17.30;59.50
69895;DHT22;57172;52.034;5.090;2022-07-29T05:06:47;17.40;59.40
69895;DHT22;57172;52.034;5.090;2022-07-29T05:09:14;17.40;59.30
69895;DHT22;57172;52.034;5.090;2022-07-29T05:11:41;17.40;59.30
69895;DHT22;57172;52.034;5.090;2022-07-29T05:14:08;17.40;59.30
69895;DHT22;57172;52.034;5.090;2022-07-29T05:16:34;17.40;59.20
69895;DHT22;57172;52.034;5.090;2022-07-29T05:19:01;17.50;59.10
69895;DHT22;57172;52.034;5.090;2022-07-29T05:21:28;17.50;59.10
69895;DHT22;57172;52.034;5.090;2022-07-29T05:23:55;17.50;58.90
69895;DHT22;57172;52.034;5.090;2022-07-29T05:26:22;17.50;58.90
69895;DHT22;57172;52.034;5.090;2022-07-29T05:28:49;17.50;59.00
69895;DHT22;57172;52.034;5.090;2022-07-29T05:31:15;17.50;58.90
69895;DHT22;57172;52.034;5.090;2022-07-29T05:33:43;17.60;59.20
69895;DHT22;57172;52.034;5.090;2022-07-29T05:36:09;17.60;59.10
69895;DHT22;57172;52.034;5.090;2022-07-29T05:38:36;17.70;59.00
69895;DHT22;57172;52.034;5.090;2022-07-29T05:41:04;17.70;59.00
69895;DHT22;57172;52.034;5.090;2022-07-29T05:43:31;17.80;58.90
69895;DHT22;57172;52.034;5.090;2022-07-29T05:45:58;17.90;58.90
69895;DHT22;57172;52.034;5.090;2022-07-29T05:48:26;17.90;58.80
69895;DHT22;57172;52.034;5.090;2022-07-29T05:50:52;17.90;58.80
69895;DHT22;57172;52.034;5.090;2022-07-29T05:53:19;18.00;58.80
69895;DHT22;57172;52.034;5.090;2022-07-29T05:55:48;18.00;58.80
69895;DHT22;57172;52.034;5.090;2022-07-29T05:58:15;18.00;58.70
69895;DHT22;57172;52.034;5.090;2022-07-29T06:00:42;18.10;58.60
69895;DHT22;57172;52.034;5.090;2022-07-29T06:03:09;18.10;58.70
69895;DHT22;57172;52.034;5.090;2022-07-29T06:05:36;18.10;58.50
69895;DHT22;57172;52.034;5.090;2022-07-29T06:08:03;18.10;58.40
69895;DHT22;57172;52.034;5.090;2022-07-29T06:10:37;18.10;58.50
69895;DHT22;57172;52.034;5.090;2022-07-29T06:13:04;18.10;58.50
69895;DHT22;57172;52.034;5.090;2022-07-29T06:15:31;18.10;58.50
69895;DHT22;57172;52.034;5.090;2022-07-29T06:17:58;18.10;58.50
69895;DHT22;57172;52.034;5.090;2022-07-29T06:20:30;18.10;58.60
69895;DHT22;57172;52.034;5.090;2022-07-29T06:22:58;18.10;58.60
69895;DHT22;57172;52.034;5.090;2022-07-29T06:25:26;18.10;58.60
69895;DHT22;57172;52.034;5.090;2022-07-29T06:27:56;18.10;58.70
69895;DHT22;57172;52.034;5.090;2022-07-29T06:30:23;18.10;58.70
69895;DHT22;57172;52.034;5.090;2022-07-29T06:32:50;18.10;58.60
69895;DHT22;57172;52.034;5.090;2022-07-29T06:35:16;18.10;58.80
69895;DHT22;57172;52.034;5.090;2022-07-29T06:38:03;18.20;58.90
69895;DHT22;57172;52.034;5.090;2022-07-29T06:40:50;18.30;58.90
69895;DHT22;57172;52.034;5.090;2022-07-29T06:43:35;18.50;58.70
69895;DHT22;57172;52.034;5.090;2022-07-29T06:46:19;18.70;58.50
69895;DHT22;57172;52.034;5.090;2022-07-29T06:48:47;18.70;58.40
69895;DHT22;57172;52.034;5.090;2022-07-29T06:51:15;18.80;58.40
69895;DHT22;57172;52.034;5.090;2022-07-29T06:53:48;18.90;58.30
69895;DHT22;57172;52.034;5.090;2022-07-29T06:56:32;18.90;58.30
69895;DHT22;57172;52.034;5.090;2022-07-29T06:59:06;19.00;58.10
69895;DHT22;57172;52.034;5.090;2022-07-29T07:01:33;19.10;57.90
69895;DHT22;57172;52.034;5.090;2022-07-29T07:04:00;19.20;57.60
69895;DHT22;57172;52.034;5.090;2022-07-29T07:06:27;19.30;57.50
69895;DHT22;57172;52.034;5.090;2022-07-29T07:08:54;19.30;57.30
69895;DHT22;57172;52.034;5.090;2022-07-29T07:11:21;19.30;57.00
69895;DHT22;57172;52.034;5.090;2022-07-29T07:13:48;19.30;56.90
69895;DHT22;57172;52.034;5.090;2022-07-29T07:16:15;19.40;56.90
69895;DHT22;57172;52.034;5.090;2022-07-29T07:18:42;19.50;57.00
69895;DHT22;57172;52.034;5.090;2022-07-29T07:21:11;19.50;56.80
69895;DHT22;57172;52.034;5.090;2022-07-29T07:23:45;19.70;56.80
69895;DHT22;57172;52.034;5.090;2022-07-29T07:26:12;19.80;56.90
69895;DHT22;57172;52.034;5.090;2022-07-29T07:28:39;20.10;56.90
69895;DHT22;57172;52.034;5.090;2022-07-29T07:31:05;20.30;56.50
69895;DHT22;57172;52.034;5.090;2022-07-29T07:33:32;20.50;55.80
69895;DHT22;57172;52.034;5.090;2022-07-29T07:35:59;20.70;55.60
69895;DHT22;57172;52.034;5.090;2022-07-29T07:38:26;20.90;55.50
69895;DHT22;57172;52.034;5.090;2022-07-29T07:40:53;21.10;55.10
69895;DHT22;57172;52.034;5.090;2022-07-29T07:43:20;21.30;54.50
69895;DHT22;57172;52.034;5.090;2022-07-29T07:45:48;21.50;54.00
69895;DHT22;57172;52.034;5.090;2022-07-29T07:48:15;21.60;53.60
69895;DHT22;57172;52.034;5.090;2022-07-29T07:50:41;21.70;53.00
69895;DHT22;57172;52.034;5.090;2022-07-29T07:53:10;21.80;52.40
69895;DHT22;57172;52.034;5.090;2022-07-29T07:55:41;21.80;52.40
69895;DHT22;57172;52.034;5.090;2022-07-29T07:58:29;21.90;52.00
69895;DHT22;57172;52.034;5.090;2022-07-29T08:00:56;22.00;51.90
69895;DHT22;57172;52.034;5.090;2022-07-29T08:03:23;22.00;51.80
69895;DHT22;57172;52.034;5.090;2022-07-29T08:05:50;22.00;51.70
69895;DHT22;57172;52.034;5.090;2022-07-29T08:08:20;22.00;51.50
69895;DHT22;57172;52.034;5.090;2022-07-29T08:10:47;21.90;51.30
69895;DHT22;57172;52.034;5.090;2022-07-29T08:13:22;21.90;51.20
69895;DHT22;57172;52.034;5.090;2022-07-29T08:15:49;21.80;51.50
69895;DHT22;57172;52.034;5.090;2022-07-29T08:18:29;21.80;51.60
69895;DHT22;57172;52.034;5.090;2022-07-29T08:20:57;21.80;51.70
69895;DHT22;57172;52.034;5.090;2022-07-29T08:23:24;21.90;51.80
69895;DHT22;57172;52.034;5.090;2022-07-29T08:25:51;22.00;51.50
69895;DHT22;57172;52.034;5.090;2022-07-29T08:28:20;22.10;51.50
69895;DHT22;57172;52.034;5.090;2022-07-29T08:30:51;22.20;51.20
69895;DHT22;57172;52.034;5.090;2022-07-29T08:33:18;22.30;51.20
69895;DHT22;57172;52.034;5.090;2022-07-29T08:35:45;22.40;51.40
69895;DHT22;57172;52.034;5.090;2022-07-29T08:38:12;22.80;51.20
69895;DHT22;57172;52.034;5.090;2022-07-29T08:40:39;23.40;51.00
69895;DHT22;57172;52.034;5.090;2022-07-29T08:43:07;24.10;50.00
69895;DHT22;57172;52.034;5.090;2022-07-29T08:45:44;24.70;49.10
69895;DHT22;57172;52.034;5.090;2022-07-29T08:48:15;25.10;47.50
69895;DHT22;57172;52.034;5.090;2022-07-29T08:50:43;25.30;47.00
69895;DHT22;57172;52.034;5.090;2022-07-29T08:53:14;25.50;46.40
69895;DHT22;57172;52.034;5.090;2022-07-29T08:55:47;25.80;45.60
69895;DHT22;57172;52.034;5.090;2022-07-29T08:58:14;26.00;45.00
69895;DHT22;57172;52.034;5.090;2022-07-29T09:00:44;26.20;45.10
69895;DHT22;57172;52.034;5.090;2022-07-29T09:03:19;26.60;44.40
69895;DHT22;57172;52.034;5.090;2022-07-29T09:05:47;27.20;43.90
69895;DHT22;57172;52.034;5.090;2022-07-29T09:08:15;27.80;42.80
69895;DHT22;57172;52.034;5.090;2022-07-29T09:10:44;28.30;42.00
69895;DHT22;57172;52.034;5.090;2022-07-29T09:13:11;28.80;41.10
69895;DHT22;57172;52.034;5.090;2022-07-29T09:15:38;29.40;40.50
69895;DHT22;57172;52.034;5.090;2022-07-29T09:18:05;29.90;39.40
69895;DHT22;57172;52.034;5.090;2022-07-29T09:20:32;30.40;39.10
69895;DHT22;57172;52.034;5.090;2022-07-29T09:23:19;30.80;38.10
69895;DHT22;57172;52.034;5.090;2022-07-29T09:25:50;31.10;37.50
69895;DHT22;57172;52.034;5.090;2022-07-29T09:28:17;31.20;37.10
69895;DHT22;57172;52.034;5.090;2022-07-29T09:30:51;31.40;36.80
69895;DHT22;57172;52.034;5.090;2022-07-29T09:33:19;31.50;36.20
69895;DHT22;57172;52.034;5.090;2022-07-29T09:35:59;31.60;36.10
69895;DHT22;57172;52.034;5.090;2022-07-29T09:38:27;31.50;35.30
69895;DHT22;57172;52.034;5.090;2022-07-29T09:40:59;31.50;35.90
69895;DHT22;57172;52.034;5.090;2022-07-29T09:43:32;31.60;35.40
69895;DHT22;57172;52.034;5.090;2022-07-29T09:46:12;31.70;35.90
69895;DHT22;57172;52.034;5.090;2022-07-29T09:48:39;31.80;35.40
69895;DHT22;57172;52.034;5.090;2022-07-29T09:51:19;32.10;35.50
69895;DHT22;57172;52.034;5.090;2022-07-29T09:53:55;32.30;34.90
69895;DHT22;57172;52.034;5.090;2022-07-29T09:56:41;32.50;34.70
69895;DHT22;57172;52.034;5.090;2022-07-29T09:59:09;32.50;34.30
69895;DHT22;57172;52.034;5.090;2022-07-29T10:01:37;32.40;34.80
69895;DHT22;57172;52.034;5.090;2022-07-29T10:04:04;32.50;34.80
69895;DHT22;57172;52.034;5.090;2022-07-29T10:06:31;32.50;34.20
69895;DHT22;57172;52.034;5.090;2022-07-29T10:09:11;32.20;34.20
69895;DHT22;57172;52.034;5.090;2022-07-29T10:11:37;31.70;34.20
69895;DHT22;57172;52.034;5.090;2022-07-29T10:14:15;31.50;34.90
69895;DHT22;57172;52.034;5.090;2022-07-29T10:16:42;31.40;35.00
69895;DHT22;57172;52.034;5.090;2022-07-29T10:19:09;31.10;34.90
69895;DHT22;57172;52.034;5.090;2022-07-29T10:21:36;30.90;35.10
69895;DHT22;57172;52.034;5.090;2022-07-29T10:24:06;30.70;35.50
69895;DHT22;57172;52.034;5.090;2022-07-29T10:26:41;30.60;35.80
69895;DHT22;57172;52.034;5.090;2022-07-29T10:29:08;30.50;36.20
69895;DHT22;57172;52.034;5.090;2022-07-29T10:43:24;29.30;37.50
69895;DHT22;57172;52.034;5.090;2022-07-29T10:45:57;28.80;38.10
69895;DHT22;57172;52.034;5.090;2022-07-29T10:48:24;28.60;38.70
69895;DHT22;57172;52.034;5.090;2022-07-29T10:50:59;28.60;39.00
69895;DHT22;57172;52.034;5.090;2022-07-29T10:53:49;28.80;39.60
69895;DHT22;57172;52.034;5.090;2022-07-29T10:56:28;29.60;39.80
69895;DHT22;57172;52.034;5.090;2022-07-29T11:01:49;31.60;37.30
69895;DHT22;57172;52.034;5.090;2022-07-29T11:07:12;33.60;34.40
69895;DHT22;57172;52.034;5.090;2022-07-29T11:09:40;34.20;33.60
69895;DHT22;57172;52.034;5.090;2022-07-29T11:15:10;35.20;32.10
69895;DHT22;57172;52.034;5.090;2022-07-29T11:23:21;36.30;31.10
69895;DHT22;57172;52.034;5.090;2022-07-29T11:26:19;36.70;30.10
69895;DHT22;57172;52.034;5.090;2022-07-29T11:29:20;36.90;30.20
69895;DHT22;57172;52.034;5.090;2022-07-29T11:31:50;37.00;29.90
69895;DHT22;57172;52.034;5.090;2022-07-29T11:34:31;37.20;29.60
69895;DHT22;57172;52.034;5.090;2022-07-29T11:39:43;37.60;29.30
69895;DHT22;57172;52.034;5.090;2022-07-29T11:45:16;37.70;28.80
69895;DHT22;57172;52.034;5.090;2022-07-29T11:48:05;37.60;28.80
69895;DHT22;57172;52.034;5.090;2022-07-29T11:50:52;37.50;29.30
69895;DHT22;57172;52.034;5.090;2022-07-29T11:53:19;37.40;29.70
69895;DHT22;57172;52.034;5.090;2022-07-29T11:55:54;37.40;29.40
69895;DHT22;57172;52.034;5.090;2022-07-29T11:58:24;37.20;29.90
69895;DHT22;57172;52.034;5.090;2022-07-29T12:00:52;37.40;29.60
69895;DHT22;57172;52.034;5.090;2022-07-29T12:03:28;37.70;29.40
69895;DHT22;57172;52.034;5.090;2022-07-29T12:06:04;37.80;28.90
69895;DHT22;57172;52.034;5.090;2022-07-29T12:08:42;38.00;28.70
69895;DHT22;57172;52.034;5.090;2022-07-29T12:11:17;38.00;29.00
69895;DHT22;57172;52.034;5.090;2022-07-29T12:13:47;38.30;28.90
69895;DHT22;57172;52.034;5.090;2022-07-29T12:16:15;38.50;28.80
69895;DHT22;57172;52.034;5.090;2022-07-29T12:18:59;38.90;28.20
69895;DHT22;57172;52.034;5.090;2022-07-29T12:21:28;39.20;27.50
69895;DHT22;57172;52.034;5.090;2022-07-29T12:23:57;39.30;27.60
69895;DHT22;57172;52.034;5.090;2022-07-29T12:26:35;39.60;27.30
69895;DHT22;57172;52.034;5.090;2022-07-29T12:29:02;39.60;27.40
69895;DHT22;57172;52.034;5.090;2022-07-29T12:31:37;39.30;27.10
69895;DHT22;57172;52.034;5.090;2022-07-29T12:34:11;39.00;27.20
69895;DHT22;57172;52.034;5.090;2022-07-29T12:36:38;38.90;27.60
69895;DHT22;57172;52.034;5.090;2022-07-29T12:39:05;39.00;27.70
69895;DHT22;57172;52.034;5.090;2022-07-29T12:41:32;39.20;27.60
69895;DHT22;57172;52.034;5.090;2022-07-29T12:43:58;39.30;27.60
69895;DHT22;57172;52.034;5.090;2022-07-29T12:46:26;39.50;27.20
69895;DHT22;57172;52.034;5.090;2022-07-29T12:48:54;39.40;27.20
69895;DHT22;57172;52.034;5.090;2022-07-29T12:51:29;39.50;27.20
69895;DHT22;57172;52.034;5.090;2022-07-29T12:54:16;39.60;26.80
69895;DHT22;57172;52.034;5.090;2022-07-29T12:56:44;39.60;27.30
69895;DHT22;57172;52.034;5.090;2022-07-29T12:59:19;39.60;27.00
69895;DHT22;57172;52.034;5.090;2022-07-29T13:01:48;39.60;26.80
69895;DHT22;57172;52.034;5.090;2022-07-29T13:04:30;39.70;26.90
69895;DHT22;57172;52.034;5.090;2022-07-29T13:07:07;39.80;26.30
69895;DHT22;57172;52.034;5.090;2022-07-29T13:09:40;39.80;26.20
69895;DHT22;57172;52.034;5.090;2022-07-29T13:12:12;39.80;26.30
69895;DHT22;57172;52.034;5.090;2022-07-29T13:14:44;39.70;26.30
69895;DHT22;57172;52.034;5.090;2022-07-29T13:17:22;39.60;26.30
69895;DHT22;57172;52.034;5.090;2022-07-29T13:20:06;39.60;26.30
69895;DHT22;57172;52.034;5.090;2022-07-29T13:22:35;39.40;26.40
69895;DHT22;57172;52.034;5.090;2022-07-29T13:25:02;39.30;26.90
69895;DHT22;57172;52.034;5.090;2022-07-29T13:27:31;39.30;26.70
69895;DHT22;57172;52.034;5.090;2022-07-29T13:30:00;39.30;26.80
69895;DHT22;57172;52.034;5.090;2022-07-29T13:32:28;39.30;27.40
69895;DHT22;57172;52.034;5.090;2022-07-29T13:34:56;39.40;27.30
69895;DHT22;57172;52.034;5.090;2022-07-29T13:37:23;39.50;26.60
69895;DHT22;57172;52.034;5.090;2022-07-29T13:39:50;39.50;26.20
69895;DHT22;57172;52.034;5.090;2022-07-29T13:42:19;39.50;26.00
69895;DHT22;57172;52.034;5.090;2022-07-29T13:44:46;39.50;26.20
69895;DHT22;57172;52.034;5.090;2022-07-29T13:47:15;39.40;26.30
69895;DHT22;57172;52.034;5.090;2022-07-29T13:49:42;39.40;26.10
69895;DHT22;57172;52.034;5.090;2022-07-29T13:52:09;39.30;26.10
69895;DHT22;57172;52.034;5.090;2022-07-29T13:54:36;39.20;26.10
69895;DHT22;57172;52.034;5.090;2022-07-29T13:57:09;39.10;26.40
69895;DHT22;57172;52.034;5.090;2022-07-29T13:59:38;38.90;26.60
69895;DHT22;57172;52.034;5.090;2022-07-29T14:02:06;38.50;26.90
69895;DHT22;57172;52.034;5.090;2022-07-29T14:04:33;38.40;27.20
69895;DHT22;57172;52.034;5.090;2022-07-29T14:07:00;38.30;27.30
69895;DHT22;57172;52.034;5.090;2022-07-29T14:09:30;38.30;27.00
69895;DHT22;57172;52.034;5.090;2022-07-29T14:12:08;37.80;26.80
69895;DHT22;57172;52.034;5.090;2022-07-29T14:14:35;37.30;27.30
69895;DHT22;57172;52.034;5.090;2022-07-29T14:17:03;36.80;27.90
69895;DHT22;57172;52.034;5.090;2022-07-29T14:19:33;36.50;28.00
69895;DHT22;57172;52.034;5.090;2022-07-29T14:22:07;36.30;28.10
69895;DHT22;57172;52.034;5.090;2022-07-29T14:24:38;35.90;28.50
69895;DHT22;57172;52.034;5.090;2022-07-29T14:27:06;35.90;28.50
69895;DHT22;57172;52.034;5.090;2022-07-29T14:29:33;35.90;28.70
69895;DHT22;57172;52.034;5.090;2022-07-29T14:32:07;36.20;28.70
69895;DHT22;57172;52.034;5.090;2022-07-29T14:34:35;36.50;28.00
69895;DHT22;57172;52.034;5.090;2022-07-29T14:37:03;36.90;27.30
69895;DHT22;57172;52.034;5.090;2022-07-29T14:39:32;37.10;26.60
69895;DHT22;57172;52.034;5.090;2022-07-29T14:42:02;36.90;26.00
69895;DHT22;57172;52.034;5.090;2022-07-29T14:44:29;36.50;26.40
69895;DHT22;57172;52.034;5.090;2022-07-29T14:47:01;36.20;26.80
69895;DHT22;57172;52.034;5.090;2022-07-29T14:49:34;36.10;26.60
69895;DHT22;57172;52.034;5.090;2022-07-29T14:52:00;36.20;26.80
69895;DHT22;57172;52.034;5.090;2022-07-29T14:54:27;36.50;26.90
69895;DHT22;57172;52.034;5.090;2022-07-29T14:56:54;36.80;26.70
69895;DHT22;57172;52.034;5.090;2022-07-29T14:59:23;36.90;26.70
69895;DHT22;57172;52.034;5.090;2022-07-29T15:01:50;36.90;27.00
69895;DHT22;57172;52.034;5.090;2022-07-29T15:04:17;37.00;27.00
69895;DHT22;57172;52.034;5.090;2022-07-29T15:06:44;36.90;27.20
69895;DHT22;57172;52.034;5.090;2022-07-29T15:09:11;36.70;27.20
69895;DHT22;57172;52.034;5.090;2022-07-29T15:11:38;36.40;27.50
69895;DHT22;57172;52.034;5.090;2022-07-29T15:14:05;36.20;28.00
69895;DHT22;57172;52.034;5.090;2022-07-29T15:16:34;36.10;28.00
69895;DHT22;57172;52.034;5.090;2022-07-29T15:19:01;35.90;28.30
69895;DHT22;57172;52.034;5.090;2022-07-29T15:21:28;35.60;28.80
69895;DHT22;57172;52.034;5.090;2022-07-29T15:23:55;35.50;29.20
69895;DHT22;57172;52.034;5.090;2022-07-29T15:26:21;35.20;28.90
69895;DHT22;57172;52.034;5.090;2022-07-29T15:28:48;34.80;29.20
69895;DHT22;57172;52.034;5.090;2022-07-29T15:31:15;34.70;29.60
69895;DHT22;57172;52.034;5.090;2022-07-29T15:33:42;34.70;29.70
69895;DHT22;57172;52.034;5.090;2022-07-29T15:36:09;34.90;29.70
69895;DHT22;57172;52.034;5.090;2022-07-29T15:38:58;34.90;29.30
69895;DHT22;57172;52.034;5.090;2022-07-29T15:41:25;34.70;29.50
69895;DHT22;57172;52.034;5.090;2022-07-29T15:43:52;34.60;29.70
69895;DHT22;57172;52.034;5.090;2022-07-29T15:46:21;34.50;30.00
69895;DHT22;57172;52.034;5.090;2022-07-29T15:49:07;34.50;29.90
69895;DHT22;57172;52.034;5.090;2022-07-29T15:51:34;34.10;30.40
69895;DHT22;57172;52.034;5.090;2022-07-29T15:54:02;33.80;30.80
69895;DHT22;57172;52.034;5.090;2022-07-29T15:56:29;33.70;30.80
69895;DHT22;57172;52.034;5.090;2022-07-29T15:58:56;33.60;30.90
69895;DHT22;57172;52.034;5.090;2022-07-29T16:01:24;33.60;30.70
69895;DHT22;57172;52.034;5.090;2022-07-29T16:03:51;33.70;30.20
69895;DHT22;57172;52.034;5.090;2022-07-29T16:06:18;33.90;30.10
69895;DHT22;57172;52.034;5.090;2022-07-29T16:08:45;34.10;30.20
69895;DHT22;57172;52.034;5.090;2022-07-29T16:11:14;34.20;30.40
69895;DHT22;57172;52.034;5.090;2022-07-29T16:13:41;34.40;30.30
69895;DHT22;57172;52.034;5.090;2022-07-29T16:16:09;34.20;30.10
69895;DHT22;57172;52.034;5.090;2022-07-29T16:18:36;33.80;30.40
69895;DHT22;57172;52.034;5.090;2022-07-29T16:21:02;33.20;31.00
69895;DHT22;57172;52.034;5.090;2022-07-29T16:23:29;32.90;31.50
69895;DHT22;57172;52.034;5.090;2022-07-29T16:25:56;32.70;31.70
69895;DHT22;57172;52.034;5.090;2022-07-29T16:28:29;32.60;31.80
69895;DHT22;57172;52.034;5.090;2022-07-29T16:30:56;32.30;32.10
69895;DHT22;57172;52.034;5.090;2022-07-29T16:33:23;32.30;32.30